Time;durP1;ratioP1;P1;durP2;ratioP2;P2;SDS_P1;SDS_P2;PMS_P1;PMS_P2;Temp;Humidity;BMP_temperature;BMP_pressure;BME280_temperature;BME280_humidity;BME280_pressure;Samples;Min_cycle;Max_cycle;Signal;HPM_P1;HPM_P2
2024/04/11 00:02:17;;;;;;;6.22;2.00;;;;;;;;;;5484402;26;20009;-71
2024/04/11 00:04:43;;;;;;;6.93;2.15;;;;;;;;;;5465962;26;20006;-71
2024/04/11 00:07:09;;;;;;;7.32;1.90;;;;;;;;;;5476844;26;20013;-71
2024/04/11 00:09:35;;;;;;;10.48;2.30;;;;;;;;;;5449842;26;20459;-71
2024/04/11 00:12:01;;;;;;;6.45;2.13;;;;;;;;;;5461396;26;19998;-71
2024/04/11 00:14:28;;;;;;;6.32;1.70;;;;;;;;;;5483502;26;19995;-71
2024/04/11 00:16:54;;;;;;;7.03;2.20;;;;;;;;;;5481995;26;20033;-72
2024/04/11 00:19:20;;;;;;;6.25;2.20;;;;;;;;;;5462395;26;20066;-72
2024/04/11 00:21:48;;;;;;;6.53;2.10;;;;;;;;;;5463347;26;19999;-71
2024/04/11 00:24:14;;;;;;;8.13;1.77;;;;;;;;;;5475452;26;20005;-71
2024/04/11 00:26:41;;;;;;;6.07;1.88;;;;;;;;;;5464841;26;20013;-71
2024/04/11 00:29:10;;;;;;;6.40;2.25;;;;;;;;;;5462752;26;19998;-71
2024/04/11 00:31:39;;;;;;;9.00;2.00;;;;;;;;;;5469121;26;19998;-71
2024/04/11 00:34:15;;;;;;;4.70;1.90;;;;;;;;;;5486927;26;20061;-71
2024/04/11 00:36:44;;;;;;;8.55;2.80;;;;;;;;;;5469368;26;20528;-71
2024/04/11 00:39:17;;;;;;;9.80;2.78;;;;;;;;;;5474463;26;19998;-71
2024/04/11 00:41:45;;;;;;;5.22;2.65;;;;;;;;;;5479447;26;20323;-71
2024/04/11 00:44:11;;;;;;;6.57;2.45;;;;;;;;;;5475785;26;20395;-71
2024/04/11 00:46:39;;;;;;;8.27;3.30;;;;;;;;;;5479729;26;20002;-72
2024/04/11 00:49:06;;;;;;;9.48;3.42;;;;;;;;;;5481057;26;20010;-71
2024/04/11 00:51:32;;;;;;;5.95;3.20;;;;;;;;;;5481300;26;19999;-71
2024/04/11 00:53:58;;;;;;;6.75;2.85;;;;;;;;;;5459444;26;20002;-71
2024/04/11 00:56:25;;;;;;;8.05;2.70;;;;;;;;;;5476510;26;20006;-71
2024/04/11 00:58:51;;;;;;;8.70;2.55;;;;;;;;;;5472328;26;19994;-71
2024/04/11 01:01:17;;;;;;;7.00;2.65;;;;;;;;;;5471188;26;20459;-72
2024/04/11 01:03:44;;;;;;;7.72;3.35;;;;;;;;;;5473627;26;20008;-71
2024/04/11 01:06:11;;;;;;;7.88;2.38;;;5.70;99.90;;;;;;5476410;26;19999;-71
2024/04/11 01:08:36;;;;;;;9.50;2.67;;;5.70;99.90;;;;;;5457934;26;20080;-72
2024/04/11 01:11:02;;;;;;;9.02;2.90;;;5.60;99.90;;;;;;5488533;26;20094;-72
2024/04/11 01:13:29;;;;;;;7.63;2.58;;;5.50;99.90;;;;;;5479456;26;20741;-72
2024/04/11 01:15:57;;;;;;;9.05;2.45;;;5.50;99.90;;;;;;5486863;26;20010;-72
2024/04/11 01:18:25;;;;;;;7.45;2.70;;;5.40;99.90;;;;;;5472820;26;20043;-71
2024/04/11 01:20:50;;;;;;;5.13;2.58;;;5.40;99.90;;;;;;5479999;26;20021;-71
2024/04/11 01:23:16;;;;;;;8.02;2.63;;;5.30;99.90;;;;;;5483097;26;20440;-72
2024/04/11 01:25:43;;;;;;;6.72;2.78;;;5.30;99.90;;;;;;5461866;26;20005;-71
2024/04/11 01:28:09;;;;;;;7.22;2.83;;;5.30;99.90;;;;;;5473701;26;20435;-71
2024/04/11 01:30:35;;;;;;;6.45;2.53;;;5.30;99.90;;;;;;5483483;26;20013;-72
2024/04/11 01:33:01;;;;;;;9.30;2.28;;;5.30;99.90;;;;;;5471051;26;20296;-71
2024/04/11 01:35:30;;;;;;;7.43;2.33;;;5.30;99.90;;;;;;5468500;26;20013;-71
2024/04/11 01:37:57;;;;;;;6.72;2.40;;;5.40;99.90;;;;;;5471626;26;20010;-71
2024/04/11 01:40:23;;;;;;;7.35;2.10;;;5.40;99.90;;;;;;5486686;26;20030;-71
2024/04/11 01:42:48;;;;;;;8.73;2.33;;;5.40;99.90;;;;;;5467628;26;20067;-71
2024/04/11 01:45:15;;;;;;;8.30;2.30;;;5.40;99.90;;;;;;5473414;26;20458;-71
2024/04/11 01:47:41;;;;;;;5.95;2.72;;;5.40;99.90;;;;;;5464093;26;20002;-71
2024/04/11 01:50:07;;;;;;;7.40;2.00;;;5.40;99.90;;;;;;5477448;26;20002;-71
2024/04/11 01:52:33;;;;;;;6.50;2.20;;;5.40;99.90;;;;;;5483758;26;20005;-71
2024/04/11 01:55:00;;;;;;;6.85;2.88;;;5.40;99.90;;;;;;5466966;26;20010;-71
2024/04/11 01:57:26;;;;;;;10.05;2.95;;;5.40;99.90;;;;;;5471537;26;20009;-71
2024/04/11 01:59:53;;;;;;;9.18;2.50;;;5.40;99.90;;;;;;5479057;26;19994;-71
2024/04/11 02:02:19;;;;;;;6.55;2.35;;;5.40;99.90;;;;;;5472470;26;20010;-71
2024/04/11 02:04:45;;;;;;;12.05;3.05;;;5.40;99.90;;;;;;5462086;26;19995;-72
2024/04/11 02:07:11;;;;;;;11.05;2.45;;;5.40;99.90;;;;;;5474429;26;19998;-72
2024/04/11 02:09:36;;;;;;;10.80;2.80;;;5.40;99.90;;;;;;5478324;26;20013;-71
2024/04/11 02:12:02;;;;;;;4.78;2.00;;;5.40;99.90;;;;;;5463976;26;20443;-71
2024/04/11 02:14:29;;;;;;;4.63;2.10;;;5.30;99.90;;;;;;5485906;26;20038;-71
2024/04/11 02:16:55;;;;;;;5.55;2.30;;;5.20;99.90;;;;;;5479396;26;20067;-71
2024/04/11 02:19:20;;;;;;;5.85;2.15;;;5.20;99.90;;;;;;5484153;26;20014;-71
2024/04/11 02:21:48;;;;;;;6.55;2.20;;;5.10;99.90;;;;;;5460202;26;20006;-71
2024/04/11 02:24:16;;;;;;;4.60;2.20;;;5.00;99.90;;;;;;5476248;26;20009;-71
2024/04/11 02:26:48;;;;;;;5.63;2.17;;;5.00;99.90;;;;;;5483218;26;20002;-71
2024/04/11 02:29:15;;;;;;;6.15;2.17;;;4.90;99.90;;;;;;5435433;26;20013;-71
2024/04/11 02:31:45;;;;;;;6.20;2.40;;;5.00;99.90;;;;;;5468869;26;20075;-72
2024/04/11 02:34:11;;;;;;;8.10;2.30;;;5.00;99.90;;;;;;5482853;26;20001;-72
2024/04/11 02:36:36;;;;;;;6.13;2.25;;;4.80;99.90;;;;;;5467930;26;20340;-71
2024/04/11 02:39:12;;;;;;;5.43;2.20;;;4.80;99.90;;;;;;5469196;26;19998;-71
2024/04/11 02:41:38;;;;;;;8.68;2.65;;;4.80;99.90;;;;;;5472652;26;20009;-71
2024/04/11 02:44:04;;;;;;;6.53;2.45;;;4.80;99.90;;;;;;5476205;26;19999;-71
2024/04/11 02:46:31;;;;;;;6.00;2.15;;;4.70;99.90;;;;;;5455964;26;20348;-71
2024/04/11 02:48:56;;;;;;;6.40;2.50;;;4.70;99.90;;;;;;5474078;26;19998;-71
2024/04/11 02:51:22;;;;;;;9.05;2.72;;;4.70;99.90;;;;;;5478950;26;20426;-71
2024/04/11 02:53:49;;;;;;;4.30;2.28;;;4.70;99.90;;;;;;5479367;26;20075;-71
2024/04/11 02:56:16;;;;;;;6.82;2.08;;;4.70;99.90;;;;;;5458240;26;20448;-71
2024/04/11 02:58:42;;;;;;;5.40;2.10;;;4.70;99.90;;;;;;5485418;26;20070;-71
2024/04/11 03:01:09;;;;;;;7.45;2.50;;;4.70;99.90;;;;;;5485866;26;20002;-71
2024/04/11 03:03:37;;;;;;;8.18;2.63;;;4.60;99.90;;;;;;5461602;26;20009;-71
2024/04/11 03:06:07;;;;;;;7.32;2.40;;;4.60;99.90;;;;;;5474350;26;20009;-71
2024/04/11 03:08:33;;;;;;;;;;;4.60;99.90;;;;;;5482081;26;20077;-71
2024/04/11 03:11:01;;;;;;;7.78;3.00;;;4.60;99.90;;;;;;5465829;26;20390;-71
2024/04/11 03:13:27;;;;;;;6.88;2.85;;;4.60;99.90;;;;;;5477684;26;20006;-71
2024/04/11 03:16:00;;;;;;;6.80;2.72;;;4.70;99.90;;;;;;5480465;26;20011;-71
2024/04/11 03:18:26;;;;;;;6.32;2.33;;;4.70;99.90;;;;;;5474767;26;20013;-71
2024/04/11 03:20:56;;;;;;;7.88;2.65;;;4.70;99.90;;;;;;5481463;26;20400;-71
2024/04/11 03:23:23;;;;;;;;;;;4.70;99.90;;;;;;5461751;26;19998;-71
2024/04/11 03:25:49;;;;;;;4.90;2.50;;;4.60;99.90;;;;;;5461534;26;19944;-72
2024/04/11 03:28:16;;;;;;;5.45;2.30;;;4.50;99.90;;;;;;5471186;26;20005;-71
2024/04/11 03:30:54;;;;;;;5.53;2.22;;;;;;;;;;5484609;26;19998;-71
2024/04/11 03:33:21;;;;;;;4.38;2.17;;;4.50;99.90;;;;;;5484316;26;20416;-70
2024/04/11 03:35:54;;;;;;;3.85;2.63;;;4.40;99.90;;;;;;5465682;26;20002;-70
2024/04/11 03:38:20;;;;;;;4.82;2.60;;;4.40;99.90;;;;;;5480768;26;20009;-71
2024/04/11 03:41:02;;;;;;;5.55;2.95;;;4.40;99.90;;;;;;5465303;26;20329;-72
2024/04/11 03:43:27;;;;;;;6.35;2.90;;;4.40;99.90;;;;;;5477927;26;20323;-72
2024/04/11 03:46:21;;;;;;;7.18;2.60;;;4.30;99.90;;;;;;5470915;26;20002;-71
2024/04/11 03:48:51;;;;;;;5.75;3.25;;;4.30;99.90;;;;;;5468906;26;20681;-71
2024/04/11 03:51:18;;;;;;;7.50;3.35;;;4.20;99.90;;;;;;5466382;26;20005;-71
2024/04/11 03:53:53;;;;;;;10.88;3.08;;;4.20;99.90;;;;;;5467412;26;20019;-71
2024/04/11 03:56:21;;;;;;;8.63;3.08;;;4.10;99.90;;;;;;5461417;26;20031;-72
2024/04/11 03:58:47;;;;;;;11.55;3.30;;;4.10;99.90;;;;;;5470478;26;19998;-72
2024/04/11 04:01:13;;;;;;;9.40;3.33;;;4.10;99.90;;;;;;5470043;26;20016;-72
2024/04/11 04:03:42;;;;;;;10.27;2.97;;;4.20;99.90;;;;;;5475331;26;19998;-72
2024/04/11 04:06:10;;;;;;;8.38;3.20;;;4.20;99.90;;;;;;5485172;26;20071;-70
2024/04/11 04:08:36;;;;;;;9.00;3.15;;;4.20;99.90;;;;;;5487632;26;20013;-71
2024/04/11 04:11:02;;;;;;;8.98;2.72;;;4.20;99.90;;;;;;5468430;26;20003;-71
2024/04/11 04:13:28;;;;;;;6.22;2.95;;;4.20;99.90;;;;;;5480032;26;20008;-71
2024/04/11 04:15:57;;;;;;;5.55;2.70;;;4.20;99.90;;;;;;5485730;26;19999;-71
2024/04/11 04:18:23;;;;;;;13.48;3.15;;;4.20;99.90;;;;;;5472520;26;19995;-71
2024/04/11 04:20:59;;;;;;;11.43;3.20;;;4.20;99.90;;;;;;5466892;26;20377;-71
2024/04/11 04:23:25;;;;;;;6.72;2.63;;;4.20;99.90;;;;;;5476314;26;20070;-71
2024/04/11 04:26:02;;;;;;;8.23;2.97;;;4.30;99.90;;;;;;5480520;26;20013;-71
2024/04/11 04:28:35;;;;;;;8.70;3.00;;;4.30;99.90;;;;;;5470494;26;20024;-71
2024/04/11 04:31:20;;;;;;;8.80;2.75;;;4.30;99.90;;;;;;5468968;26;20005;-71
2024/04/11 04:33:55;;;;;;;9.15;2.80;;;4.30;99.90;;;;;;5473136;26;20385;-71
2024/04/11 04:36:28;;;;;;;7.53;3.10;;;4.30;99.90;;;;;;5472877;26;20099;-71
2024/04/11 04:38:57;;;;;;;7.80;2.60;;;4.20;99.90;;;;;;5462406;26;19998;-71
2024/04/11 04:41:26;;;;;;;5.22;2.65;;;4.20;99.90;;;;;;5486496;26;20527;-71
2024/04/11 04:43:56;;;;;;;6.20;2.83;;;4.10;99.90;;;;;;5480939;26;20030;-71
2024/04/11 04:46:27;;;;;;;6.60;4.00;;;4.10;99.90;;;;;;5472326;26;19995;-68
2024/04/11 04:48:55;;;;;;;8.30;3.28;;;4.00;99.90;;;;;;5468962;26;19994;-67
2024/04/11 04:51:26;;;;;;;7.28;3.20;;;4.00;99.90;;;;;;5477046;26;20031;-67
2024/04/11 04:53:52;;;;;;;14.38;3.42;;;4.00;99.90;;;;;;5454048;26;20448;-67
2024/04/11 04:56:19;;;;;;;7.57;3.15;;;4.00;99.90;;;;;;5471794;26;20002;-67
2024/04/11 04:58:46;;;;;;;5.18;2.60;;;4.00;99.90;;;;;;5482656;26;20002;-70
2024/04/11 05:01:11;;;;;;;8.35;3.20;;;4.00;99.90;;;;;;5476011;26;20002;-75
2024/04/11 05:03:40;;;;;;;9.45;3.28;;;3.90;99.90;;;;;;5465754;26;20017;-74
2024/04/11 05:06:07;;;;;;;6.90;2.67;;;3.90;99.90;;;;;;5455367;26;20041;-74
2024/04/11 05:08:36;;;;;;;12.65;3.17;;;3.90;99.90;;;;;;5484087;26;20025;-72
2024/04/11 05:11:13;;;;;;;8.15;2.95;;;4.00;99.90;;;;;;5477770;26;20002;-72
2024/04/11 05:13:40;;;;;;;7.35;2.85;;;4.00;99.90;;;;;;5479766;26;19998;-74
2024/04/11 05:16:07;;;;;;;8.50;3.25;;;4.00;99.90;;;;;;5476250;26;19995;-74
2024/04/11 05:18:39;;;;;;;6.43;3.28;;;4.10;99.90;;;;;;5467992;26;19998;-73
2024/04/11 05:21:24;;;;;;;9.23;3.70;;;4.20;99.90;;;;;;5471252;26;19998;-73
2024/04/11 05:23:50;;;;;;;7.75;3.08;;;4.30;99.90;;;;;;5480791;26;20006;-75
2024/04/11 05:26:22;;;;;;;14.45;3.22;;;4.30;99.90;;;;;;5481911;26;20002;-73
2024/04/11 05:28:48;;;;;;;6.40;2.67;;;4.40;99.90;;;;;;5467696;26;20080;-76
2024/04/11 05:31:17;;;;;;;6.65;2.85;;;4.50;99.90;;;;;;5466860;26;20001;-73
2024/04/11 05:33:44;;;;;;;6.47;2.77;;;4.60;99.90;;;;;;5482348;26;20034;-75
2024/04/11 05:36:17;;;;;;;12.63;3.95;;;4.60;99.90;;;;;;5478921;26;20034;-73
2024/04/11 05:38:44;;;;;;;12.20;4.18;;;4.70;99.90;;;;;;5473115;26;20020;-74
2024/04/11 05:41:11;;;;;;;11.32;3.97;;;4.90;99.90;;;;;;5485098;26;20358;-72
2024/04/11 05:43:44;;;;;;;9.60;3.63;;;5.00;99.90;;;;;;5477966;26;19995;-70
2024/04/11 05:46:19;;;;;;;8.10;3.25;;;5.10;99.90;;;;;;5469316;26;20427;-70
2024/04/11 05:48:48;;;;;;;7.35;3.08;;;5.20;99.90;;;;;;5483361;26;20085;-69
2024/04/11 05:51:14;;;;;;;6.25;2.83;;;5.30;99.90;;;;;;5483399;26;20002;-69
2024/04/11 05:53:41;;;;;;;7.57;3.45;;;5.40;99.90;;;;;;5480949;26;20009;-70
2024/04/11 05:56:08;;;;;;;5.88;3.42;;;5.50;99.90;;;;;;5481697;26;20455;-69
2024/04/11 05:58:35;;;;;;;7.60;3.40;;;5.50;99.90;;;;;;5477286;26;19994;-69
2024/04/11 06:01:05;;;;;;;8.98;4.32;;;5.60;99.90;;;;;;5484673;26;20308;-69
2024/04/11 06:03:36;;;;;;;10.05;3.97;;;5.70;99.90;;;;;;5461658;26;20673;-68
2024/04/11 06:06:01;;;;;;;;;;;5.80;99.90;;;;;;5466508;26;20405;-68
2024/04/11 06:08:27;;;;;;;10.95;3.75;;;6.00;99.90;;;;;;5485317;26;19993;-68
2024/04/11 06:10:52;;;;;;;8.18;3.50;;;6.10;99.90;;;;;;5471141;26;19994;-69
2024/04/11 06:13:18;;;;;;;9.50;3.50;;;6.10;99.90;;;;;;5478464;26;20002;-68
2024/04/11 06:15:47;;;;;;;7.80;4.03;;;6.30;99.90;;;;;;5481421;26;20007;-69
2024/04/11 06:18:14;;;;;;;9.60;4.60;;;6.40;99.90;;;;;;5449593;26;20071;-68
2024/04/11 06:20:41;;;;;;;10.35;4.13;;;6.50;99.90;;;;;;5468455;26;20009;-68
2024/04/11 06:23:09;;;;;;;8.95;4.07;;;6.60;99.90;;;;;;5475222;26;20079;-70
2024/04/11 06:25:38;;;;;;;7.97;4.22;;;6.60;99.90;;;;;;5477332;26;20002;-69
2024/04/11 06:28:04;;;;;;;11.95;4.90;;;6.80;99.90;;;;;;5475163;26;20150;-69
2024/04/11 06:30:38;;;;;;;12.30;4.60;;;6.90;99.90;;;;;;5462588;26;20031;-69
2024/04/11 06:33:11;;;;;;;11.77;4.47;;;7.00;99.90;;;;;;5478279;26;20012;-69
2024/04/11 06:35:37;;;;;;;10.27;4.53;;;7.10;99.90;;;;;;5480750;26;20357;-68
2024/04/11 06:38:07;;;;;;;9.30;4.70;;;7.20;99.90;;;;;;5459392;26;20011;-68
2024/04/11 06:40:33;;;;;;;10.95;4.70;;;7.40;99.90;;;;;;5471743;26;20452;-68
2024/04/11 06:42:59;;;;;;;15.32;5.90;;;7.50;99.90;;;;;;5481639;26;19994;-68
2024/04/11 06:45:25;;;;;;;11.93;4.70;;;7.60;99.90;;;;;;5482793;26;20006;-68
2024/04/11 06:47:52;;;;;;;16.73;5.43;;;7.70;99.90;;;;;;5462574;26;19999;-69
2024/04/11 06:50:22;;;;;;;9.38;4.47;;;7.80;99.90;;;;;;5480132;26;19994;-69
2024/04/11 06:52:48;;;;;;;13.85;5.28;;;8.10;99.90;;;;;;5464426;26;20035;-69
2024/04/11 06:55:14;;;;;;;10.18;4.85;;;8.20;99.90;;;;;;5463592;26;19998;-69
2024/04/11 06:57:44;;;;;;;16.08;4.30;;;8.20;99.90;;;;;;5481258;26;20002;-69
2024/04/11 07:00:35;;;;;;;9.18;4.30;;;8.40;99.90;;;;;;5484187;26;20013;-70
2024/04/11 07:03:16;;;;;;;13.02;4.68;;;8.40;99.90;;;;;;5480243;26;20338;-70
2024/04/11 07:05:55;;;;;;;11.75;4.50;;;8.50;99.90;;;;;;5435082;26;20033;-69
2024/04/11 07:08:29;;;;;;;10.77;4.65;;;8.70;99.90;;;;;;5483824;26;20002;-70
2024/04/11 07:11:19;;;;;;;16.63;4.25;;;8.80;99.90;;;;;;5464180;26;20038;-70
2024/04/11 07:13:46;;;;;;;20.17;5.85;;;8.80;99.90;;;;;;5475718;26;20002;-69
2024/04/11 07:16:16;;;;;;;18.88;5.18;;;9.00;99.90;;;;;;5480440;26;19998;-69
2024/04/11 07:18:48;;;;;;;16.02;5.05;;;9.20;99.90;;;;;;5478958;26;20337;-68
2024/04/11 07:21:19;;;;;;;10.20;4.90;;;9.20;99.90;;;;;;5482900;26;19998;-69
2024/04/11 07:23:45;;;;;;;;;;;9.30;99.90;;;;;;5460588;26;20006;-68
2024/04/11 07:26:20;;;;;;;11.98;4.50;;;9.40;99.90;;;;;;5433514;26;19936;-69
2024/04/11 07:28:45;;;;;;;17.08;4.68;;;9.50;99.90;;;;;;5481891;26;19994;-69
2024/04/11 07:31:14;;;;;;;12.65;4.78;;;9.70;99.90;;;;;;5482989;26;20002;-69
2024/04/11 07:33:40;;;;;;;14.48;4.82;;;9.80;99.90;;;;;;5481312;26;20418;-69
2024/04/11 07:36:22;;;;;;;12.85;4.53;;;9.90;99.90;;;;;;5472417;26;20005;-69
2024/04/11 07:38:48;;;;;;;14.88;4.85;;;9.90;99.90;;;;;;5485377;26;19994;-69
2024/04/11 07:41:17;;;;;;;10.32;4.80;;;10.10;99.90;;;;;;5464965;26;20003;-68
2024/04/11 07:43:47;;;;;;;12.52;5.40;;;10.10;99.90;;;;;;5480638;26;20010;-68
2024/04/11 07:46:16;;;;;;;15.85;4.60;;;10.20;99.90;;;;;;5481673;26;20066;-69
2024/04/11 07:48:47;;;;;;;13.70;5.07;;;10.30;99.90;;;;;;5468652;26;20464;-70
2024/04/11 07:51:16;;;;;;;9.35;4.55;;;10.40;99.90;;;;;;5469331;26;19998;-69
2024/04/11 07:53:46;;;;;;;13.32;4.90;;;10.50;99.90;;;;;;5471387;26;20327;-70
2024/04/11 07:56:20;;;;;;;15.27;4.88;;;10.60;99.90;;;;;;5484670;26;20505;-69
2024/04/11 07:58:49;;;;;;;12.80;4.15;;;10.80;99.90;;;;;;5481174;26;20455;-69
2024/04/11 08:01:16;;;;;;;15.23;4.30;;;;;;;;;;5476367;26;19990;-69
2024/04/11 08:03:42;;;;;;;15.50;5.05;;;11.30;99.90;;;;;;5478259;26;19994;-70
2024/04/11 08:06:10;;;;;;;8.35;4.50;;;11.40;99.90;;;;;;5474507;26;19995;-69
2024/04/11 08:08:40;;;;;;;12.23;4.25;;;11.40;99.90;;;;;;5454680;26;20079;-69
2024/04/11 08:11:06;;;;;;;9.07;4.78;;;11.40;99.90;;;;;;5474348;26;19998;-69
2024/04/11 08:13:35;;;;;;;20.23;4.50;;;11.50;99.90;;;;;;5479521;26;20016;-69
2024/04/11 08:16:00;;;;;;;10.20;4.32;;;11.60;99.90;;;;;;5476034;26;20101;-70
2024/04/11 08:18:27;;;;;;;14.15;4.50;;;11.70;99.90;;;;;;5458118;26;20339;-70
2024/04/11 08:20:54;;;;;;;13.95;5.20;;;11.70;99.90;;;;;;5476058;26;20443;-70
2024/04/11 08:23:21;;;;;;;8.70;4.18;;;11.80;99.90;;;;;;5480010;26;20021;-70
2024/04/11 08:25:53;;;;;;;12.30;4.45;;;12.00;99.90;;;;;;5457051;26;20003;-70
2024/04/11 08:28:19;;;;;;;17.98;4.38;;;12.20;99.90;;;;;;5438686;26;20011;-69
2024/04/11 08:30:46;;;;;;;11.27;3.67;;;12.30;99.90;;;;;;5478921;26;20009;-70
2024/04/11 08:33:12;;;;;;;11.35;3.50;;;12.40;99.90;;;;;;5451155;26;20325;-71
2024/04/11 08:35:38;;;;;;;8.68;3.58;;;12.70;99.90;;;;;;5462291;26;20415;-70
2024/04/11 08:38:07;;;;;;;12.38;3.58;;;;;;;;;;5474111;26;20002;-70
2024/04/11 08:40:36;;;;;;;12.13;3.90;;;;;;;;;;5481447;26;19998;-70
2024/04/11 08:43:04;;;;;;;8.98;3.47;;;13.10;99.90;;;;;;5466041;26;19998;-69
2024/04/11 08:45:31;;;;;;;9.43;3.65;;;13.20;99.90;;;;;;5474792;26;20067;-70
2024/04/11 08:47:57;;;;;;;9.40;4.38;;;13.20;99.90;;;;;;5472327;26;19998;-69
2024/04/11 08:50:23;;;;;;;10.35;3.60;;;13.30;99.90;;;;;;5469272;26;20043;-70
2024/04/11 08:52:51;;;;;;;12.65;3.30;;;13.40;99.90;;;;;;5475909;26;20018;-70
2024/04/11 08:55:17;;;;;;;15.32;4.25;;;13.60;99.90;;;;;;5475422;26;19998;-69
2024/04/11 08:57:43;;;;;;;11.10;3.60;;;13.70;99.80;;;;;;5427485;26;19992;-69
2024/04/11 09:00:12;;;;;;;8.18;3.47;;;13.70;99.80;;;;;;5430365;26;20451;-70
2024/04/11 09:02:44;;;;;;;10.82;3.70;;;13.80;99.10;;;;;;5443392;26;20010;-69
2024/04/11 09:05:14;;;;;;;10.50;3.75;;;13.90;99.20;;;;;;5448936;26;20006;-72
2024/04/11 09:07:40;;;;;;;;;;;14.00;98.20;;;;;;5427839;26;20003;-70
2024/04/11 09:10:07;;;;;;;9.93;2.70;;;14.00;98.00;;;;;;5478555;26;19924;-70
2024/04/11 09:12:32;;;;;;;15.77;3.20;;;14.10;97.50;;;;;;5485382;26;20010;-69
2024/04/11 09:14:58;;;;;;;11.98;2.85;;;14.10;97.70;;;;;;5483091;26;19998;-70
2024/04/11 09:17:27;;;;;;;8.48;3.15;;;;;;;;;;5479860;26;20002;-70
2024/04/11 09:20:05;;;;;;;10.63;2.75;;;;;;;;;;5471061;26;20304;-70
2024/04/11 09:22:33;;;;;;;23.35;3.03;;;;;;;;;;5453602;26;20009;-69
2024/04/11 09:25:03;;;;;;;11.70;3.00;;;;;;;;;;5468791;26;19998;-70
2024/04/11 09:27:30;;;;;;;19.77;2.78;;;;;;;;;;5471649;26;20009;-70
2024/04/11 09:29:57;;;;;;;8.80;2.58;;;;;;;;;;5479345;26;20002;-70
2024/04/11 09:32:24;;;;;;;38.88;3.28;;;14.80;99.90;;;;;;5470951;26;20438;-70
2024/04/11 09:34:55;;;;;;;7.30;1.88;;;14.90;99.90;;;;;;5467250;26;20000;-70
2024/04/11 09:37:24;;;;;;;26.67;3.28;;;15.00;99.90;;;;;;5463350;26;19999;-70
2024/04/11 09:39:56;;;;;;;21.02;2.60;;;14.90;99.90;;;;;;5475543;26;19999;-70
2024/04/11 09:42:26;;;;;;;7.15;2.38;;;14.90;99.90;;;;;;5471587;26;20393;-70
2024/04/11 09:44:55;;;;;;;27.33;2.63;;;14.90;99.90;;;;;;5448474;26;20400;-70
2024/04/11 09:47:34;;;;;;;10.10;2.20;;;14.90;99.90;;;;;;5485075;26;20008;-70
2024/04/11 09:50:04;;;;;;;7.90;1.70;;;15.00;99.90;;;;;;5445836;26;20363;-70
2024/04/11 09:52:34;;;;;;;7.88;2.13;;;15.20;99.90;;;;;;5481428;26;20626;-70
2024/04/11 09:55:07;;;;;;;9.63;2.30;;;15.30;93.40;;;;;;5479841;26;20458;-69
2024/04/11 09:57:36;;;;;;;11.07;2.35;;;15.40;99.90;;;;;;5432578;26;20013;-70
2024/04/11 10:00:07;;;;;;;4.93;1.90;;;15.50;99.90;;;;;;5470749;26;19995;-70
2024/04/11 10:02:38;;;;;;;27.23;2.78;;;15.60;99.90;;;;;;5466711;26;19990;-71
2024/04/11 10:05:05;;;;;;;5.57;2.13;;;15.70;96.00;;;;;;5463161;26;20343;-70
2024/04/11 10:07:41;;;;;;;195.10;12.55;;;15.90;91.90;;;;;;5466117;26;20026;-70
2024/04/11 10:10:20;;;;;;;21.88;2.83;;;15.90;91.00;;;;;;5472386;26;20037;-69
2024/04/11 10:12:49;;;;;;;4.68;2.47;;;16.00;91.20;;;;;;5485148;26;20004;-70
2024/04/11 10:15:18;;;;;;;15.00;2.00;;;16.10;90.40;;;;;;5482981;26;19994;-70
2024/04/11 10:18:05;;;;;;;8.10;2.60;;;16.20;90.10;;;;;;5467015;26;20006;-81
2024/04/11 10:21:02;;;;;;;6.53;2.30;;;16.40;90.00;;;;;;5434405;26;19994;-79
2024/04/11 10:23:32;;;;;;;4.57;1.65;;;16.50;89.60;;;;;;5460728;26;20049;-73
2024/04/11 10:25:59;;;;;;;5.13;1.55;;;16.60;89.10;;;;;;5452916;26;20014;-73
2024/04/11 10:28:41;;;;;;;4.38;1.52;;;16.70;88.70;;;;;;5468455;26;20337;-73
2024/04/11 10:31:12;;;;;;;4.20;2.05;;;16.90;89.40;;;;;;5476213;26;20002;-73
2024/04/11 10:33:47;;;;;;;4.32;1.50;;;17.00;85.20;;;;;;5476351;26;20364;-73
2024/04/11 10:36:17;;;;;;;4.40;1.35;;;16.90;83.70;;;;;;5473256;26;19999;-74
2024/04/11 10:38:43;;;;;;;;;;;16.80;83.40;;;;;;5469876;26;19999;-70
2024/04/11 10:41:12;;;;;;;5.47;1.42;;;16.60;81.00;;;;;;5486514;26;19924;-71
2024/04/11 10:43:42;;;;;;;4.90;1.60;;;16.60;83.50;;;;;;5476029;26;20009;-71
2024/04/11 10:46:12;;;;;;;4.93;1.10;;;16.60;81.30;;;;;;5470880;26;19994;-70
2024/04/11 10:48:40;;;;;;;4.28;1.30;;;16.70;80.60;;;;;;5470599;26;20005;-71
2024/04/11 10:51:10;;;;;;;6.18;1.23;;;16.90;79.90;;;;;;5470961;26;20026;-70
2024/04/11 10:53:36;;;;;;;2.78;1.13;;;17.00;79.80;;;;;;5456218;26;20009;-71
2024/04/11 10:56:20;;;;;;;5.82;1.70;;;17.20;79.90;;;;;;5450222;26;20003;-71
2024/04/11 10:58:47;;;;;;;6.45;1.48;;;17.40;79.70;;;;;;5463050;26;20010;-72
2024/04/11 11:01:14;;;;;;;4.15;1.23;;;17.70;79.20;;;;;;5449192;26;20088;-72
2024/04/11 11:03:42;;;;;;;5.05;1.50;;;17.90;79.30;;;;;;5461890;26;20002;-72
2024/04/11 11:06:40;;;;;;;2.47;1.20;;;17.90;78.30;;;;;;5467684;26;20450;-72
2024/04/11 11:09:13;;;;;;;4.95;1.17;;;18.00;75.30;;;;;;5482314;26;19994;-72
2024/04/11 11:11:41;;;;;;;4.60;1.30;;;18.20;75.40;;;;;;5466288;26;20005;-72
2024/04/11 11:14:17;;;;;;;7.10;1.90;;;18.40;76.60;;;;;;5481008;26;20009;-72
2024/04/11 11:16:53;;;;;;;5.75;1.73;;;18.60;76.90;;;;;;5479780;26;20082;-72
2024/04/11 11:19:18;;;;;;;11.98;2.60;;;18.80;77.20;;;;;;5476311;26;20009;-72
2024/04/11 11:21:50;;;;;;;4.68;1.50;;;18.90;77.20;;;;;;5476610;26;20011;-71
2024/04/11 11:24:23;;;;;;;8.00;2.08;;;19.00;75.80;;;;;;5454748;26;20006;-71
2024/04/11 11:26:54;;;;;;;3.80;1.40;;;18.70;78.00;;;;;;5457959;26;19994;-71
2024/04/11 11:29:25;;;;;;;5.60;1.83;;;18.60;75.70;;;;;;5484715;26;19998;-71
2024/04/11 11:32:01;;;;;;;3.50;1.92;;;18.50;75.50;;;;;;5460966;26;19998;-70
2024/04/11 11:34:31;;;;;;;8.43;1.77;;;18.30;75.90;;;;;;5463404;26;20507;-71
2024/04/11 11:37:00;;;;;;;4.65;1.80;;;18.40;74.50;;;;;;5478633;26;19998;-71
2024/04/11 11:39:33;;;;;;;6.57;1.60;;;18.40;74.80;;;;;;5483294;26;20002;-72
2024/04/11 11:42:08;;;;;;;7.05;2.03;;;18.70;74.10;;;;;;5476483;26;20458;-71
2024/04/11 11:45:23;;;;;;;11.40;1.88;;;18.80;73.40;;;;;;5475971;26;20066;-70
2024/04/11 11:47:35;;;;;;;3.10;0.90;;;18.70;74.50;;;;;;5474212;26;20002;-71
2024/04/11 11:50:10;;;;;;;14.25;1.75;;;18.90;73.90;;;;;;5457046;26;19995;-71
2024/04/11 11:52:37;;;;;;;4.78;1.85;;;19.20;74.10;;;;;;5438712;26;20002;-71
2024/04/11 11:55:06;;;;;;;3.83;1.77;;;18.90;73.30;;;;;;5458429;26;20320;-71
2024/04/11 11:57:41;;;;;;;4.28;1.75;;;18.90;74.10;;;;;;5454908;26;19994;-70
2024/04/11 12:00:18;;;;;;;7.82;1.60;;;19.10;73.70;;;;;;5463596;26;20014;-71
2024/04/11 12:02:51;;;;;;;3.88;1.45;;;19.30;73.10;;;;;;5467464;26;19998;-70
2024/04/11 12:05:23;;;;;;;5.82;2.00;;;19.70;72.10;;;;;;5483918;26;19990;-70
2024/04/11 12:07:58;;;;;;;4.63;2.00;;;20.00;71.60;;;;;;5477373;26;20035;-71
2024/04/11 12:13:18;;;;;;;2.55;1.20;;;20.60;69.90;;;;;;5473175;26;20446;-71
2024/04/11 12:15:51;;;;;;;3.08;1.42;;;20.80;69.40;;;;;;5478724;26;20007;-71
2024/04/11 12:18:22;;;;;;;4.85;1.65;;;21.10;68.50;;;;;;5456322;26;20030;-71
2024/04/11 12:20:48;;;;;;;3.40;1.60;;;21.40;68.70;;;;;;5474276;26;20002;-71
2024/04/11 12:23:14;;;;;;;5.57;1.40;;;21.60;67.00;;;;;;5479115;26;20464;-71
2024/04/11 12:25:41;;;;;;;2.85;1.63;;;21.90;66.80;;;;;;5454379;26;20010;-71
2024/04/11 12:28:09;;;;;;;4.22;1.83;;;21.90;66.90;;;;;;5462029;26;20007;-71
2024/04/11 12:30:36;;;;;;;3.28;1.50;;;22.10;67.20;;;;;;5479755;26;20482;-71
2024/04/11 12:33:05;;;;;;;3.30;1.30;;;22.10;67.10;;;;;;5487840;26;19998;-71
2024/04/11 12:35:41;;;;;;;3.17;1.55;;;22.40;66.80;;;;;;5466278;26;20006;-70
2024/04/11 12:38:12;;;;;;;5.05;1.50;;;22.80;64.90;;;;;;5479440;26;20003;-71
2024/04/11 12:40:40;;;;;;;5.63;1.60;;;23.20;64.30;;;;;;5485361;26;20025;-68
2024/04/11 12:43:06;;;;;;;10.63;1.70;;;23.40;63.60;;;;;;5469264;26;20009;-72
2024/04/11 12:45:31;;;;;;;2.83;1.45;;;23.70;62.70;;;;;;5468417;26;20002;-71
2024/04/11 12:48:05;;;;;;;6.38;1.70;;;24.00;61.80;;;;;;5485504;26;20014;-71
2024/04/11 12:50:35;;;;;;;5.55;1.25;;;24.00;61.60;;;;;;5469057;26;19994;-70
2024/04/11 12:53:10;;;;;;;3.80;1.38;;;24.20;61.70;;;;;;5478954;26;20009;-71
2024/04/11 12:55:39;;;;;;;6.47;1.30;;;24.40;61.30;;;;;;5450262;26;20454;-70
2024/04/11 12:58:07;;;;;;;6.50;1.83;;;24.60;60.70;;;;;;5469454;26;20074;-72
2024/04/11 13:00:43;;;;;;;4.47;1.33;;;24.60;60.20;;;;;;5476833;26;20320;-72
2024/04/11 13:03:16;;;;;;;6.65;1.50;;;24.50;60.00;;;;;;5473072;26;20074;-71
2024/04/11 13:05:51;;;;;;;13.75;2.40;;;24.30;59.70;;;;;;5482709;26;20384;-68
2024/04/11 13:08:20;;;;;;;3.92;1.85;;;24.00;60.70;;;;;;5473326;26;19998;-68
2024/04/11 13:10:49;;;;;;;4.30;1.52;;;23.90;60.30;;;;;;5485866;26;20006;-69
2024/04/11 13:13:18;;;;;;;4.93;1.83;;;23.90;60.40;;;;;;5480739;26;20454;-67
2024/04/11 13:15:44;;;;;;;8.65;1.75;;;24.10;59.50;;;;;;5481559;26;20010;-69
2024/04/11 13:18:13;;;;;;;6.63;1.52;;;24.00;60.60;;;;;;5464678;26;20006;-67